Time;durP1;ratioP1;P1;durP2;ratioP2;P2;SDS_P1;SDS_P2;PMS_P1;PMS_P2;Temp;Humidity;BMP_temperature;BMP_pressure;BME280_temperature;BME280_humidity;BME280_pressure;Samples;Min_cycle;Max_cycle;Signal;HPM_P1;HPM_P2
2024/04/13 00:01:58;;;;;;;9.93;5.70;;;17.50;87.00;;;;;;11091465;26;20319;-61
2024/04/13 00:07:03;;;;;;;10.55;5.65;;;17.50;86.90;;;;;;11092855;26;20228;-62
2024/04/13 00:12:11;;;;;;;7.70;5.10;;;17.50;86.50;;;;;;11093352;26;20346;-62
2024/04/13 00:17:17;;;;;;;8.68;6.22;;;17.50;86.90;;;;;;11091508;26;20305;-61
2024/04/13 00:22:23;;;;;;;9.50;6.10;;;17.50;87.20;;;;;;11090521;26;20315;-61
2024/04/13 00:27:31;;;;;;;5.35;4.72;;;17.40;86.60;;;;;;11091749;26;20295;-62
2024/04/13 00:32:37;;;;;;;9.88;6.30;;;17.40;87.10;;;;;;11091705;26;20245;-60
2024/04/13 00:37:42;;;;;;;8.07;5.97;;;17.40;86.70;;;;;;11095487;26;20228;-61
2024/04/13 00:42:51;;;;;;;8.65;5.55;;;17.40;87.30;;;;;;11097211;26;20236;-68
2024/04/13 00:48:00;;;;;;;8.13;5.70;;;17.40;87.80;;;;;;11097972;26;22803;-65
2024/04/13 00:53:06;;;;;;;10.38;5.47;;;17.30;87.20;;;;;;11095432;26;20239;-66
2024/04/13 00:58:14;;;;;;;10.57;6.28;;;17.30;87.80;;;;;;11096157;26;20295;-66
2024/04/13 01:03:20;;;;;;;10.40;6.32;;;17.30;87.80;;;;;;11096409;26;20237;-68
2024/04/13 01:08:28;;;;;;;8.45;6.03;;;17.20;88.20;;;;;;11097629;26;20297;-66
2024/04/13 01:13:37;;;;;;;10.55;6.05;;;17.20;87.50;;;;;;11096305;26;21706;-69
2024/04/13 01:18:43;;;;;;;9.88;5.43;;;17.10;87.50;;;;;;11097118;26;20237;-68
2024/04/13 01:23:52;;;;;;;9.13;5.53;;;17.10;87.50;;;;;;11096238;26;20233;-67
2024/04/13 01:29:00;;;;;;;7.85;5.70;;;17.00;87.90;;;;;;11096635;26;20477;-67
2024/04/13 01:34:05;;;;;;;12.07;5.93;;;17.10;87.80;;;;;;11095440;26;20340;-68
2024/04/13 01:39:13;;;;;;;10.25;5.47;;;17.00;87.70;;;;;;11097448;26;20338;-67
2024/04/13 01:44:21;;;;;;;10.70;6.30;;;17.00;88.10;;;;;;11097504;26;20233;-65
2024/04/13 01:49:27;;;;;;;13.60;6.00;;;16.90;87.90;;;;;;11095050;26;20332;-68
2024/04/13 01:54:32;;;;;;;10.55;5.68;;;16.90;88.40;;;;;;11096059;26;20249;-66
2024/04/13 01:59:42;;;;;;;12.48;6.10;;;16.90;87.70;;;;;;11095202;26;20232;-68
2024/04/13 02:04:47;;;;;;;7.68;5.32;;;16.90;88.40;;;;;;11096154;26;20327;-66
2024/04/13 02:09:53;;;;;;;6.75;5.82;;;16.90;88.60;;;;;;11095545;26;20228;-68
2024/04/13 02:15:01;;;;;;;7.43;5.47;;;16.90;88.40;;;;;;11095915;26;20237;-68
2024/04/13 02:20:07;;;;;;;8.82;5.57;;;16.80;88.20;;;;;;11096730;26;20236;-67
2024/04/13 02:25:14;;;;;;;10.13;5.88;;;16.90;88.10;;;;;;11095407;26;20810;-68
2024/04/13 02:30:22;;;;;;;7.43;5.05;;;16.80;87.90;;;;;;11093115;26;20241;-68
2024/04/13 02:35:28;;;;;;;11.63;5.93;;;16.80;88.50;;;;;;11094172;26;20237;-67
2024/04/13 02:40:33;;;;;;;10.40;5.13;;;16.80;88.60;;;;;;11094398;26;20719;-69
2024/04/13 02:45:41;;;;;;;7.60;5.10;;;16.80;88.50;;;;;;11094709;26;22019;-68
2024/04/13 02:50:47;;;;;;;7.10;5.43;;;16.80;88.50;;;;;;11093352;26;20244;-68
2024/04/13 02:55:52;;;;;;;7.50;5.22;;;16.70;89.00;;;;;;11092492;26;20265;-68
2024/04/13 03:01:02;;;;;;;9.00;5.63;;;16.70;89.10;;;;;;11094976;26;20236;-68
2024/04/13 03:06:11;;;;;;;10.43;5.80;;;16.70;89.30;;;;;;11091960;26;20241;-68
2024/04/13 03:11:17;;;;;;;8.65;5.78;;;16.70;89.60;;;;;;11092468;26;20236;-66
2024/04/13 03:16:25;;;;;;;7.05;5.22;;;16.70;89.60;;;;;;11094737;26;22200;-68
2024/04/13 03:21:31;;;;;;;7.80;6.10;;;16.70;89.50;;;;;;11093669;26;20349;-68
2024/04/13 03:26:36;;;;;;;8.70;5.65;;;16.60;89.50;;;;;;11092596;26;20675;-67
2024/04/13 03:31:44;;;;;;;6.68;5.10;;;16.60;89.60;;;;;;11093807;26;20239;-66
2024/04/13 03:36:49;;;;;;;7.50;5.63;;;16.60;89.50;;;;;;11004168;26;22381;-67
2024/04/13 03:41:55;;;;;;;9.63;5.75;;;16.60;90.00;;;;;;11094066;26;20236;-69
2024/04/13 03:47:03;;;;;;;8.07;6.35;;;16.50;90.60;;;;;;11091789;26;20245;-69
2024/04/13 03:52:09;;;;;;;8.32;6.00;;;16.60;90.10;;;;;;11093461;26;20347;-68
2024/04/13 03:57:14;;;;;;;10.27;5.97;;;16.50;90.30;;;;;;11091429;26;20233;-67
2024/04/13 04:02:22;;;;;;;9.07;6.13;;;16.50;90.30;;;;;;11092260;26;20236;-67
2024/04/13 04:07:27;;;;;;;8.95;5.85;;;16.50;90.60;;;;;;11091487;26;20232;-67
2024/04/13 04:12:33;;;;;;;8.23;6.68;;;16.40;90.30;;;;;;11096450;26;20244;-68
2024/04/13 04:17:41;;;;;;;9.38;6.18;;;16.40;90.40;;;;;;11097651;26;20337;-65
2024/04/13 04:22:46;;;;;;;9.60;6.00;;;16.40;90.40;;;;;;11100058;26;20337;-66
2024/04/13 04:27:52;;;;;;;11.80;6.45;;;16.30;90.50;;;;;;11098226;26;20714;-68
2024/04/13 04:33:00;;;;;;;7.85;6.18;;;16.30;90.50;;;;;;11100120;26;20345;-67
2024/04/13 04:38:06;;;;;;;7.63;6.05;;;16.30;90.40;;;;;;11099166;26;20232;-67
2024/04/13 04:43:12;;;;;;;13.00;6.65;;;16.30;90.30;;;;;;11100173;26;20368;-67
2024/04/13 04:48:20;;;;;;;9.07;6.30;;;16.20;90.30;;;;;;11101143;26;20777;-67
2024/04/13 04:53:27;;;;;;;7.25;5.82;;;16.20;90.40;;;;;;11099787;26;20676;-67
2024/04/13 04:58:32;;;;;;;9.93;7.22;;;16.20;90.40;;;;;;11101709;26;20237;-67
2024/04/13 05:03:40;;;;;;;8.75;6.75;;;16.20;90.60;;;;;;11101535;26;21813;-68
2024/04/13 05:08:46;;;;;;;10.07;6.55;;;16.20;90.80;;;;;;11100414;26;20232;-67
2024/04/13 05:13:52;;;;;;;7.97;6.47;;;16.10;90.50;;;;;;11095799;26;20240;-68
2024/04/13 05:19:00;;;;;;;9.65;7.18;;;16.10;90.60;;;;;;11098566;26;20237;-67
2024/04/13 05:24:06;;;;;;;7.82;6.13;;;16.10;90.60;;;;;;11097389;26;20350;-66
2024/04/13 05:29:11;;;;;;;10.65;6.70;;;16.10;90.50;;;;;;11098186;26;20288;-67
2024/04/13 05:34:19;;;;;;;8.88;6.63;;;16.10;90.60;;;;;;11096547;26;20236;-65
2024/04/13 05:39:24;;;;;;;8.68;7.00;;;16.10;91.20;;;;;;11096680;26;20247;-66
2024/04/13 05:44:32;;;;;;;11.10;6.93;;;16.20;90.70;;;;;;11095250;26;20315;-70
2024/04/13 05:49:40;;;;;;;9.90;6.68;;;16.20;90.60;;;;;;11090814;26;20322;-70
2024/04/13 05:54:45;;;;;;;9.63;6.45;;;16.30;90.80;;;;;;11025122;26;20799;-66
2024/04/13 05:59:51;;;;;;;9.02;6.63;;;16.30;90.50;;;;;;11094566;26;21642;-68
2024/04/13 06:04:59;;;;;;;8.30;6.35;;;16.40;90.60;;;;;;11094159;26;20237;-68
2024/04/13 06:10:07;;;;;;;9.00;6.65;;;16.40;90.70;;;;;;11093545;26;20237;-67
2024/04/13 06:15:13;;;;;;;10.73;6.63;;;16.50;90.50;;;;;;11094774;26;20322;-67
2024/04/13 06:20:21;;;;;;;8.18;6.47;;;16.60;90.70;;;;;;11091785;26;20813;-67
2024/04/13 06:25:26;;;;;;;7.18;5.72;;;16.70;90.60;;;;;;11008450;26;20240;-66
2024/04/13 06:30:33;;;;;;;9.00;6.40;;;16.80;90.50;;;;;;11109389;26;21682;-69
2024/04/13 06:35:41;;;;;;;8.30;5.90;;;16.80;90.70;;;;;;11106711;26;20248;-72
2024/04/13 06:40:47;;;;;;;10.10;6.93;;;16.90;90.70;;;;;;11100078;26;20317;-69
2024/04/13 06:45:52;;;;;;;8.93;6.65;;;17.00;90.80;;;;;;11186362;26;20362;-62
2024/04/13 06:51:00;;;;;;;8.95;6.50;;;17.10;90.60;;;;;;11187094;26;20605;-65
2024/04/13 06:56:06;;;;;;;11.65;6.53;;;17.20;90.70;;;;;;11157985;26;20233;-64
2024/04/13 07:01:12;;;;;;;8.75;6.05;;;17.30;90.70;;;;;;11151709;26;20321;-62
2024/04/13 07:06:20;;;;;;;8.85;5.57;;;17.40;90.70;;;;;;11134807;26;20302;-63
2024/04/13 07:11:27;;;;;;;10.65;5.93;;;17.50;90.70;;;;;;11132186;26;20235;-62
2024/04/13 07:16:33;;;;;;;8.05;6.10;;;17.50;90.60;;;;;;11110564;26;20375;-64
2024/04/13 07:21:41;;;;;;;9.50;6.13;;;17.60;90.70;;;;;;11117437;26;20237;-63
2024/04/13 07:26:46;;;;;;;7.28;5.80;;;17.60;90.60;;;;;;11105029;26;20233;-64
2024/04/13 07:31:51;;;;;;;7.90;5.55;;;17.70;90.60;;;;;;11160341;26;20236;-62
2024/04/13 07:36:59;;;;;;;7.20;5.82;;;17.80;90.60;;;;;;11137897;26;20317;-62
2024/04/13 07:42:05;;;;;;;17.77;7.35;;;17.80;90.50;;;;;;11121437;26;20253;-63
2024/04/13 07:47:11;;;;;;;10.02;6.07;;;17.90;90.60;;;;;;11117321;26;20237;-62
2024/04/13 07:52:19;;;;;;;7.50;5.47;;;18.00;90.50;;;;;;11136533;26;20825;-63
2024/04/13 07:57:24;;;;;;;7.95;5.32;;;18.00;90.40;;;;;;11132985;26;20235;-64
2024/04/13 08:02:30;;;;;;;7.25;5.15;;;18.10;90.40;;;;;;11128404;26;21008;-64
2024/04/13 08:07:39;;;;;;;8.57;5.53;;;18.20;90.40;;;;;;11155212;26;20233;-63
2024/04/13 08:12:44;;;;;;;8.10;5.55;;;18.30;90.40;;;;;;11139956;26;20341;-65
2024/04/13 08:17:50;;;;;;;8.50;5.30;;;18.40;90.30;;;;;;11134695;26;20338;-63
2024/04/13 08:22:58;;;;;;;12.13;5.32;;;18.40;90.20;;;;;;11146773;26;20241;-64
2024/04/13 08:28:03;;;;;;;6.80;5.25;;;18.50;90.20;;;;;;11137136;26;22237;-64
2024/04/13 08:33:09;;;;;;;6.80;5.55;;;18.70;90.20;;;;;;11152022;26;20241;-62
2024/04/13 08:38:17;;;;;;;8.65;5.30;;;18.80;90.00;;;;;;11145412;26;20350;-64
2024/04/13 08:43:24;;;;;;;9.15;5.38;;;18.90;90.00;;;;;;11124489;26;20356;-65
2024/04/13 08:48:29;;;;;;;7.15;5.40;;;19.00;90.00;;;;;;11160698;26;20236;-65
2024/04/13 08:53:39;;;;;;;6.03;5.25;;;19.10;90.00;;;;;;11174649;26;20358;-65
2024/04/13 08:58:47;;;;;;;6.63;4.80;;;19.20;89.80;;;;;;11201671;26;20713;-65
2024/04/13 09:03:52;;;;;;;6.68;4.65;;;19.30;90.00;;;;;;11203827;26;20368;-64
2024/04/13 09:09:08;;;;;;;7.15;4.78;;;19.30;89.50;;;;;;11180444;26;20807;-63
2024/04/13 09:14:14;;;;;;;9.20;5.38;;;19.40;89.40;;;;;;11179768;26;22281;-64
2024/04/13 09:19:19;;;;;;;8.88;5.18;;;19.50;89.40;;;;;;11185568;26;20233;-64
2024/04/13 09:24:29;;;;;;;6.07;4.53;;;19.50;89.40;;;;;;11205905;26;20751;-65
2024/04/13 09:29:34;;;;;;;9.02;5.18;;;19.60;89.50;;;;;;11201577;26;20381;-66
2024/04/13 09:34:40;;;;;;;4.78;4.00;;;19.80;89.40;;;;;;11198409;26;20239;-64
2024/04/13 09:39:48;;;;;;;10.90;5.00;;;19.90;89.40;;;;;;11203422;26;20241;-64
2024/04/13 09:44:53;;;;;;;8.35;4.32;;;20.10;88.90;;;;;;11201219;26;20237;-63
2024/04/13 09:49:58;;;;;;;6.95;4.47;;;20.20;88.50;;;;;;11200342;26;20749;-64
2024/04/13 09:55:07;;;;;;;6.25;3.90;;;20.20;88.50;;;;;;11187423;26;20233;-63
2024/04/13 10:00:15;;;;;;;7.75;3.58;;;20.30;88.60;;;;;;11171533;26;20236;-66
2024/04/13 10:05:21;;;;;;;8.65;3.97;;;20.40;88.40;;;;;;11179724;26;20228;-65
2024/04/13 10:10:30;;;;;;;5.32;4.10;;;20.60;88.50;;;;;;11177878;26;20323;-64
2024/04/13 10:15:36;;;;;;;6.78;3.95;;;20.60;86.90;;;;;;11173394;26;20232;-64
2024/04/13 10:20:42;;;;;;;8.55;4.53;;;20.70;87.50;;;;;;11161402;26;20353;-64
2024/04/13 10:25:59;;;;;;;7.72;4.75;;;20.80;87.40;;;;;;11162049;26;20322;-65
2024/04/13 10:31:05;;;;;;;7.07;4.05;;;20.80;86.50;;;;;;11156378;26;20304;-64
2024/04/13 10:36:11;;;;;;;6.28;3.92;;;20.90;86.90;;;;;;11158567;26;20816;-65
2024/04/13 10:41:32;;;;;;;7.03;3.80;;;21.10;86.10;;;;;;11165370;26;20235;-65
2024/04/13 10:46:37;;;;;;;7.65;4.10;;;21.10;85.50;;;;;;11171923;26;20233;-65
2024/04/13 10:51:43;;;;;;;7.78;4.25;;;21.20;86.30;;;;;;11144349;26;20350;-65
2024/04/13 10:56:52;;;;;;;6.68;4.13;;;21.40;86.20;;;;;;11139355;26;20240;-65
2024/04/13 11:02:13;;;;;;;7.18;4.53;;;21.60;85.20;;;;;;11142868;26;20276;-63
2024/04/13 11:07:20;;;;;;;5.82;4.38;;;21.60;85.00;;;;;;11153256;26;20240;-65
2024/04/13 11:12:28;;;;;;;8.18;4.13;;;21.70;85.00;;;;;;11139125;26;20343;-64
2024/04/13 11:17:34;;;;;;;6.00;3.70;;;21.80;85.70;;;;;;11154589;26;20229;-71
2024/04/13 11:22:40;;;;;;;7.95;3.97;;;22.10;86.10;;;;;;11100204;26;20241;-66
2024/04/13 11:27:48;;;;;;;5.15;4.05;;;22.30;85.60;;;;;;11100967;26;22397;-67
2024/04/13 11:32:54;;;;;;;8.55;4.15;;;22.40;84.40;;;;;;11108019;26;20236;-65
2024/04/13 11:38:02;;;;;;;4.63;3.50;;;22.60;84.10;;;;;;11128243;26;20293;-64
2024/04/13 11:43:10;;;;;;;6.18;3.53;;;22.70;82.80;;;;;;11147716;26;20248;-64
2024/04/13 11:48:16;;;;;;;7.28;3.20;;;22.80;82.30;;;;;;11147688;26;22083;-64
2024/04/13 11:53:22;;;;;;;5.57;2.90;;;22.90;82.60;;;;;;11098616;26;20348;-64
2024/04/13 11:58:30;;;;;;;4.95;3.22;;;23.00;82.00;;;;;;11115461;26;20327;-63
2024/04/13 12:03:36;;;;;;;6.55;3.38;;;23.10;81.90;;;;;;11095764;26;20237;-65
2024/04/13 12:08:41;;;;;;;5.93;3.15;;;23.20;80.80;;;;;;11097920;26;20248;-64
2024/04/13 12:13:49;;;;;;;4.50;2.92;;;23.50;80.90;;;;;;11100822;26;20245;-64
2024/04/13 12:18:55;;;;;;;5.75;3.05;;;23.60;80.30;;;;;;11053559;26;20236;-65
2024/04/13 12:24:00;;;;;;;4.82;3.47;;;23.70;80.00;;;;;;11083499;26;20237;-64
2024/04/13 12:29:08;;;;;;;7.88;3.80;;;23.90;79.00;;;;;;11084663;26;20232;-64
2024/04/13 12:34:14;;;;;;;8.75;5.10;;;24.10;77.50;;;;;;11093751;26;20236;-65
2024/04/13 12:39:19;;;;;;;6.95;5.55;;;24.30;78.00;;;;;;11027098;26;20331;-64
2024/04/13 12:44:28;;;;;;;6.70;4.60;;;24.50;77.30;;;;;;11052887;21;20428;-66
2024/04/13 12:49:34;;;;;;;7.05;3.58;;;24.60;77.50;;;;;;10984688;26;20238;-66
2024/04/13 12:54:42;;;;;;;4.88;2.92;;;24.80;76.30;;;;;;10989315;26;20246;-67
2024/04/13 12:59:50;;;;;;;5.40;3.10;;;25.00;76.70;;;;;;10921422;26;20239;-66
2024/04/13 13:04:55;;;;;;;5.18;3.75;;;25.10;74.90;;;;;;10977678;26;20242;-67
2024/04/13 13:10:01;;;;;;;3.90;2.70;;;25.20;75.40;;;;;;10979327;26;20242;-66
2024/04/13 13:15:09;;;;;;;5.15;2.92;;;25.30;75.70;;;;;;10979640;26;20238;-63
2024/04/13 13:20:15;;;;;;;5.88;2.83;;;25.50;75.80;;;;;;10969037;26;20243;-61
2024/04/13 13:25:20;;;;;;;3.22;2.80;;;25.70;74.90;;;;;;10972429;26;20413;-64
2024/04/13 13:30:30;;;;;;;3.38;2.90;;;25.90;75.30;;;;;;10972929;26;20230;-63
2024/04/13 13:35:36;;;;;;;4.22;3.33;;;26.20;74.50;;;;;;10973796;26;20238;-62
2024/04/13 13:40:42;;;;;;;3.13;2.65;;;26.50;72.70;;;;;;10976906;26;20245;-65
2024/04/13 13:45:50;;;;;;;5.45;2.85;;;26.50;72.70;;;;;;10983496;26;20320;-64
2024/04/13 13:50:55;;;;;;;4.38;2.40;;;26.80;71.30;;;;;;10956984;26;20336;-64
2024/04/13 13:56:01;;;;;;;4.88;2.70;;;27.00;70.80;;;;;;10986636;26;20316;-64
2024/04/13 14:01:09;;;;;;;4.93;3.05;;;27.40;71.30;;;;;;10987555;26;20242;-63
2024/04/13 14:06:15;;;;;;;3.30;2.53;;;27.70;69.30;;;;;;10990975;26;20335;-63
2024/04/13 14:11:21;;;;;;;4.88;2.67;;;27.70;69.50;;;;;;10987891;26;20242;-62
2024/04/13 14:16:29;;;;;;;5.35;2.78;;;27.60;68.40;;;;;;10981187;26;20278;-64
2024/04/13 14:21:36;;;;;;;4.80;2.60;;;27.60;67.50;;;;;;10981666;26;20354;-62
2024/04/13 14:26:42;;;;;;;5.13;2.55;;;27.80;67.20;;;;;;10983941;26;20257;-63
2024/04/13 14:31:50;;;;;;;4.20;2.70;;;28.00;68.50;;;;;;10981923;26;20250;-62
2024/04/13 14:36:55;;;;;;;6.05;2.80;;;28.10;66.00;;;;;;10986522;26;20253;-63
2024/04/13 14:42:01;;;;;;;5.07;2.42;;;28.20;66.90;;;;;;10984494;26;20254;-62
2024/04/13 14:47:09;;;;;;;4.63;2.60;;;28.20;66.70;;;;;;10984752;26;20383;-62
2024/04/13 14:52:18;;;;;;;4.05;2.35;;;28.30;64.70;;;;;;10984044;26;22081;-63
2024/04/13 14:57:23;;;;;;;3.70;2.88;;;28.40;64.70;;;;;;10980759;26;20343;-63
2024/04/13 15:02:32;;;;;;;4.70;2.75;;;28.60;62.40;;;;;;10982728;26;21019;-63
2024/04/13 15:07:38;;;;;;;3.08;2.50;;;28.40;62.50;;;;;;10982905;26;20864;-63
2024/04/13 15:12:43;;;;;;;4.38;2.42;;;28.40;62.80;;;;;;10980701;26;20612;-62
2024/04/13 15:17:52;;;;;;;5.35;2.67;;;28.30;62.60;;;;;;10981950;26;20877;-63
2024/04/13 15:22:57;;;;;;;4.53;2.70;;;28.30;60.80;;;;;;10982584;26;20250;-62
2024/04/13 15:28:08;;;;;;;2.80;2.60;;;28.10;60.90;;;;;;10983893;26;20241;-64
2024/04/13 15:33:16;;;;;;;4.50;2.90;;;28.10;61.00;;;;;;10980946;26;20857;-63
2024/04/13 15:38:22;;;;;;;4.47;2.65;;;28.10;60.50;;;;;;10980511;26;21458;-65
2024/04/13 15:43:27;;;;;;;4.28;2.80;;;28.20;61.70;;;;;;10968488;26;20249;-63
2024/04/13 15:48:35;;;;;;;2.90;2.53;;;28.30;61.60;;;;;;10977774;26;20400;-62
2024/04/13 15:53:41;;;;;;;3.28;2.42;;;28.40;60.70;;;;;;10982238;26;20383;-61
2024/04/13 15:58:46;;;;;;;4.65;2.30;;;28.60;60.40;;;;;;10985860;26;22320;-61
2024/04/13 16:03:54;;;;;;;3.83;2.75;;;28.80;59.70;;;;;;10986125;26;20893;-61
2024/04/13 16:09:00;;;;;;;3.42;2.72;;;29.00;58.40;;;;;;10990132;26;20688;-62
2024/04/13 16:14:06;;;;;;;4.57;2.85;;;28.90;58.70;;;;;;10994614;26;20246;-63
2024/04/13 16:19:14;;;;;;;3.83;2.85;;;29.10;58.60;;;;;;10991025;26;20250;-63
2024/04/13 16:24:20;;;;;;;3.17;2.83;;;29.00;56.60;;;;;;10994092;26;20324;-62
2024/04/13 16:29:26;;;;;;;4.10;2.85;;;28.80;57.90;;;;;;10901024;26;21549;-63
2024/04/13 16:34:34;;;;;;;3.78;2.75;;;28.70;57.20;;;;;;10991508;26;20890;-63
2024/04/13 16:39:39;;;;;;;3.45;2.75;;;28.60;56.70;;;;;;10977618;26;20254;-63
2024/04/13 16:44:44;;;;;;;3.88;2.53;;;28.30;55.70;;;;;;10886277;26;20242;-63
2024/04/13 16:49:54;;;;;;;5.28;2.88;;;28.00;55.40;;;;;;10975834;26;20247;-63
2024/04/13 16:54:59;;;;;;;7.85;3.28;;;27.80;55.90;;;;;;10885177;26;20247;-64
2024/04/13 17:00:05;;;;;;;6.28;2.97;;;27.40;56.00;;;;;;10971639;26;20245;-63
2024/04/13 17:05:13;;;;;;;5.25;3.22;;;27.00;56.00;;;;;;10974419;26;20254;-62
2024/04/13 17:10:19;;;;;;;4.25;3.30;;;26.60;56.70;;;;;;10975767;26;20253;-63
2024/04/13 17:15:24;;;;;;;5.40;3.05;;;26.30;57.00;;;;;;10985281;26;20250;-61
2024/04/13 17:20:32;;;;;;;4.85;2.47;;;26.00;57.40;;;;;;11001944;26;20359;-62
2024/04/13 17:25:38;;;;;;;6.68;2.95;;;25.80;58.30;;;;;;11009362;26;20347;-62
2024/04/13 17:30:43;;;;;;;4.13;3.22;;;25.60;58.60;;;;;;11007272;26;20741;-62
2024/04/13 17:35:51;;;;;;;5.07;2.92;;;25.40;58.40;;;;;;11005495;26;20250;-63
2024/04/13 17:41:00;;;;;;;4.13;3.10;;;25.20;58.70;;;;;;11005373;26;20344;-63
2024/04/13 17:46:05;;;;;;;5.90;3.10;;;25.00;59.70;;;;;;11004786;26;20250;-63
2024/04/13 17:51:13;;;;;;;5.15;3.28;;;24.80;59.10;;;;;;11004380;26;21445;-63
2024/04/13 17:56:19;;;;;;;5.68;2.75;;;24.70;59.30;;;;;;11003320;26;20246;-70
2024/04/13 18:01:24;;;;;;;4.65;2.95;;;24.50;59.50;;;;;;11001374;26;20335;-62
2024/04/13 18:06:32;;;;;;;4.43;3.30;;;24.40;59.70;;;;;;10999726;26;22124;-62
2024/04/13 18:11:38;;;;;;;3.10;2.80;;;24.30;59.70;;;;;;11004471;26;20247;-63
2024/04/13 18:16:43;;;;;;;7.00;3.47;;;24.10;59.70;;;;;;10999180;26;20329;-63
2024/04/13 18:21:51;;;;;;;6.55;3.05;;;24.00;60.00;;;;;;10988110;26;20328;-63
2024/04/13 18:26:57;;;;;;;5.13;3.42;;;23.90;60.00;;;;;;10992127;26;21555;-63
2024/04/13 18:32:04;;;;;;;5.10;3.25;;;23.70;60.10;;;;;;10993275;26;20312;-63
2024/04/13 18:37:12;;;;;;;4.70;3.08;;;23.60;60.30;;;;;;10993049;26;20316;-65
2024/04/13 18:42:18;;;;;;;3.03;2.70;;;23.50;60.60;;;;;;10994100;26;20872;-63
2024/04/13 18:47:24;;;;;;;4.65;3.20;;;23.40;60.80;;;;;;10918312;21;21516;-63
2024/04/13 18:52:32;;;;;;;5.13;3.25;;;23.30;61.00;;;;;;10882550;26;23089;-62
2024/04/13 18:57:38;;;;;;;4.35;2.92;;;23.20;61.10;;;;;;10887625;26;21897;-65
2024/04/13 19:02:43;;;;;;;5.60;3.05;;;23.00;61.00;;;;;;10888318;26;20798;-62
2024/04/13 19:07:51;;;;;;;5.85;3.10;;;22.90;61.70;;;;;;10880747;26;20247;-64
2024/04/13 19:12:57;;;;;;;4.18;2.88;;;22.80;61.10;;;;;;10884025;26;20247;-67
2024/04/13 19:18:02;;;;;;;6.70;3.25;;;22.80;61.40;;;;;;10885619;26;20310;-63
2024/04/13 19:23:11;;;;;;;3.72;3.03;;;22.70;61.40;;;;;;10886879;26;20708;-62
2024/04/13 19:28:16;;;;;;;5.32;3.72;;;22.60;61.60;;;;;;10881298;26;20247;-65
2024/04/13 19:33:22;;;;;;;5.95;3.20;;;22.60;61.80;;;;;;10887470;26;20366;-62
2024/04/13 19:38:31;;;;;;;6.18;3.33;;;22.50;62.00;;;;;;10889474;26;20251;-62
2024/04/13 19:43:36;;;;;;;6.22;2.92;;;22.50;62.40;;;;;;10885096;26;20940;-63
2024/04/13 19:48:42;;;;;;;5.28;3.47;;;22.40;62.40;;;;;;10884885;26;21798;-64
2024/04/13 19:53:51;;;;;;;4.38;2.85;;;22.30;62.40;;;;;;10888401;26;20757;-63
2024/04/13 19:58:57;;;;;;;4.68;3.08;;;22.30;62.80;;;;;;10883603;26;20367;-61
2024/04/13 20:04:03;;;;;;;5.00;3.80;;;22.20;63.00;;;;;;10885275;26;20858;-62
2024/04/13 20:09:12;;;;;;;5.35;3.20;;;22.10;63.30;;;;;;10883450;26;21864;-62
2024/04/13 20:14:17;;;;;;;6.18;3.22;;;22.10;63.50;;;;;;10882185;26;20348;-63
2024/04/13 20:19:30;;;;;;;5.22;2.90;;;22.00;63.40;;;;;;10888576;26;20247;-61
2024/04/13 20:24:39;;;;;;;4.93;3.15;;;21.90;63.60;;;;;;10885109;26;20251;-62
2024/04/13 20:29:44;;;;;;;3.83;3.20;;;21.90;64.30;;;;;;10880674;26;20349;-62
2024/04/13 20:34:52;;;;;;;4.97;3.10;;;21.80;64.40;;;;;;10881828;26;20256;-64
2024/04/13 20:40:00;;;;;;;4.32;3.00;;;21.80;64.80;;;;;;10878885;26;20252;-65
2024/04/13 20:45:12;;;;;;;4.78;3.10;;;21.80;64.90;;;;;;10891287;26;20250;-61
2024/04/13 20:50:17;;;;;;;6.00;3.30;;;21.70;64.60;;;;;;10888628;26;20757;-62
2024/04/13 20:55:26;;;;;;;5.13;3.40;;;21.70;64.90;;;;;;10885699;26;20248;-61
2024/04/13 21:00:32;;;;;;;6.32;3.72;;;21.70;65.50;;;;;;10894799;26;20248;-62
2024/04/13 21:05:37;;;;;;;5.70;3.42;;;21.60;66.00;;;;;;10893902;26;20252;-63
2024/04/13 21:10:48;;;;;;;3.60;3.30;;;21.60;65.60;;;;;;10890025;26;21572;-61
2024/04/13 21:15:53;;;;;;;6.85;3.17;;;21.50;66.20;;;;;;10893797;26;20255;-62
2024/04/13 21:20:59;;;;;;;4.75;3.20;;;21.50;66.40;;;;;;10899393;26;20251;-63
2024/04/13 21:26:07;;;;;;;4.63;3.30;;;21.50;66.20;;;;;;10888599;26;20256;-63
2024/04/13 21:31:13;;;;;;;4.88;3.80;;;21.40;66.40;;;;;;10892295;26;20927;-63
2024/04/13 21:36:18;;;;;;;5.07;3.28;;;21.40;66.60;;;;;;10895410;26;20255;-62
2024/04/13 21:41:26;;;;;;;3.65;3.35;;;21.40;66.70;;;;;;10888879;26;21800;-61
2024/04/13 21:46:32;;;;;;;5.18;3.30;;;21.30;66.80;;;;;;10889781;26;20259;-63
2024/04/13 21:51:37;;;;;;;6.05;3.63;;;21.20;67.30;;;;;;10890002;26;20353;-63
2024/04/13 21:56:46;;;;;;;3.85;3.45;;;21.20;67.60;;;;;;10895505;26;20372;-60
2024/04/13 22:01:51;;;;;;;5.90;4.03;;;21.20;67.90;;;;;;10891786;26;20744;-61
2024/04/13 22:06:57;;;;;;;4.90;3.95;;;21.20;68.30;;;;;;10898910;26;20250;-64
2024/04/13 22:12:06;;;;;;;5.22;3.30;;;21.10;68.70;;;;;;10894908;26;20690;-63
2024/04/13 22:17:12;;;;;;;4.13;3.70;;;21.10;67.80;;;;;;10899442;26;20252;-62
2024/04/13 22:22:21;;;;;;;7.30;3.80;;;21.10;69.30;;;;;;10904578;26;22440;-63
2024/04/13 22:27:29;;;;;;;5.97;4.05;;;21.10;68.80;;;;;;10895079;26;20252;-63
2024/04/13 22:32:35;;;;;;;6.22;4.30;;;21.20;69.50;;;;;;10893866;26;20251;-62
2024/04/13 22:37:40;;;;;;;6.20;4.13;;;21.10;69.40;;;;;;10894483;26;20248;-60
2024/04/13 22:42:48;;;;;;;6.40;3.95;;;21.10;69.90;;;;;;10891089;26;20243;-60
2024/04/13 22:47:54;;;;;;;4.57;3.70;;;21.10;69.50;;;;;;10888207;26;20251;-61
2024/04/13 22:52:59;;;;;;;6.00;3.88;;;21.10;69.70;;;;;;10887273;26;20252;-65
2024/04/13 22:58:08;;;;;;;4.35;3.95;;;21.00;70.00;;;;;;10880021;26;20248;-64
2024/04/13 23:03:13;;;;;;;7.68;4.05;;;20.90;70.20;;;;;;10880050;26;20758;-62
2024/04/13 23:08:19;;;;;;;7.53;4.65;;;20.90;70.10;;;;;;10876806;26;20341;-63
2024/04/13 23:13:27;;;;;;;5.07;3.83;;;20.80;70.70;;;;;;10887084;26;20255;-62
2024/04/13 23:18:32;;;;;;;5.22;4.28;;;20.70;70.40;;;;;;10886765;26;20250;-63
2024/04/13 23:23:38;;;;;;;7.28;4.30;;;20.70;70.60;;;;;;10883231;26;22091;-63
2024/04/13 23:28:46;;;;;;;7.85;3.70;;;20.60;70.80;;;;;;10885485;26;20305;-63
2024/04/13 23:33:52;;;;;;;6.38;3.20;;;20.50;70.20;;;;;;10888959;26;20366;-62
2024/04/13 23:38:58;;;;;;;4.00;2.47;;;20.40;68.40;;;;;;10887446;26;20303;-63
2024/04/13 23:44:11;;;;;;;2.88;2.33;;;20.30;66.70;;;;;;10889538;26;20354;-62
2024/04/13 23:49:17;;;;;;;5.07;2.08;;;20.20;66.00;;;;;;10891640;26;20269;-63
2024/04/13 23:54:22;;;;;;;4.18;1.88;;;20.10;64.40;;;;;;10885977;26;20255;-63
2024/04/13 23:59:30;;;;;;;6.22;1.92;;;20.00;62.30;;;;;;10886191;26;20250;-62
